Time;durP1;ratioP1;P1;durP2;ratioP2;P2;SDS_P1;SDS_P2;PMS_P1;PMS_P2;Temp;Humidity;BMP_temperature;BMP_pressure;BME280_temperature;BME280_humidity;BME280_pressure;Samples;Min_cycle;Max_cycle;Signal;HPM_P1;HPM_P2
2022/06/05 00:01:41;;;;;;;6.00;5.50;;;;;;;;;;5094146;28;20458;-74
2022/06/05 00:04:10;;;;;;;6.63;5.43;;;;;;;;;;5093691;28;20381;-75
2022/06/05 00:06:51;;;;;;;6.57;5.90;;;;;;;;;;5093940;28;20418;-76
2022/06/05 00:09:20;;;;;;;6.33;5.83;;;;;;;;;;5093893;28;20418;-74
2022/06/05 00:11:53;;;;;;;6.67;6.00;;;;;;;;;;5093789;28;20424;-73
2022/06/05 00:14:20;;;;;;;5.77;5.03;;;;;;;;;;5093352;28;20435;-73
2022/06/05 00:16:46;;;;;;;6.50;5.90;;;;;;;;;;5094047;28;20425;-74
2022/06/05 00:19:12;;;;;;;6.60;6.00;;;;;;;;;;5094010;28;20737;-73
2022/06/05 00:21:38;;;;;;;6.40;5.90;;;;;;;;;;5093719;28;20454;-75
2022/06/05 00:24:04;;;;;;;7.67;6.10;;;;;;;;;;5093269;28;20411;-74
2022/06/05 00:26:42;;;;;;;6.77;6.17;;;;;;;;;;5093990;28;20772;-75
2022/06/05 00:29:11;;;;;;;7.60;6.83;;;;;;;;;;5093550;28;20415;-75
2022/06/05 00:31:43;;;;;;;7.20;6.60;;;;;;;;;;5093500;28;20483;-74
2022/06/05 00:34:09;;;;;;;6.97;6.47;;;;;;;;;;5093166;28;20781;-74
2022/06/05 00:36:55;;;;;;;7.00;6.40;;;;;;;;;;5093576;28;20406;-75
2022/06/05 00:39:36;;;;;;;5.73;5.33;;;;;;;;;;5093399;28;20402;-74
2022/06/05 00:42:02;;;;;;;6.73;6.00;;;;;;;;;;5093209;28;20953;-75
2022/06/05 00:44:31;;;;;;;6.87;6.37;;;;;;;;;;5093049;28;20423;-74
2022/06/05 00:46:57;;;;;;;6.83;6.27;;;;;;;;;;5093357;28;20403;-75
2022/06/05 00:49:25;;;;;;;6.70;6.20;;;;;;;;;;5093271;28;20771;-74
2022/06/05 00:51:51;;;;;;;6.63;6.00;;;;;;;;;;5092767;28;20409;-74
2022/06/05 00:54:17;;;;;;;7.73;7.03;;;;;;;;;;5092683;28;20818;-74
2022/06/05 00:56:43;;;;;;;7.13;6.10;;;;;;;;;;5093142;28;20494;-73
2022/06/05 00:59:12;;;;;;;7.00;6.40;;;;;;;;;;5093099;28;20494;-74
2022/06/05 01:01:38;;;;;;;7.27;6.67;;;;;;;;;;5092910;28;20458;-74
2022/06/05 01:04:04;;;;;;;7.27;6.57;;;;;;;;;;5074411;28;20457;-75
2022/06/05 01:06:30;;;;;;;7.30;6.70;;;;;;;;;;5092896;28;20407;-75
2022/06/05 01:08:56;;;;;;;8.23;7.53;;;;;;;;;;5093041;28;20430;-74
2022/06/05 01:11:37;;;;;;;9.03;8.13;;;;;;;;;;5093040;28;20403;-74
2022/06/05 01:14:06;;;;;;;7.00;6.30;;;;;;;;;;5092403;28;20763;-74
2022/06/05 01:16:35;;;;;;;7.57;6.87;;;;;;;;;;5092850;28;20385;-74
2022/06/05 01:19:16;;;;;;;7.23;6.53;;;;;;;;;;5092787;28;20453;-73
2022/06/05 01:22:14;;;;;;;7.33;6.73;;;;;;;;;;5092767;28;20462;-75
2022/06/05 01:24:43;;;;;;;6.57;5.97;;;;;;;;;;5036598;28;20431;-75
2022/06/05 01:27:13;;;;;;;7.73;7.03;;;;;;;;;;5092807;28;20773;-75
2022/06/05 01:29:51;;;;;;;7.13;6.53;;;;;;;;;;5092721;28;20492;-75
2022/06/05 01:32:29;;;;;;;7.13;6.43;;;;;;;;;;5091208;28;20460;-74
2022/06/05 01:35:02;;;;;;;6.57;6.07;;;;;;;;;;5092507;28;20434;-74
2022/06/05 01:37:31;;;;;;;7.20;6.00;;;;;;;;;;5092831;28;20463;-75
2022/06/05 01:40:10;;;;;;;6.13;5.63;;;;;;;;;;5091418;28;20419;-73
2022/06/05 01:42:38;;;;;;;6.50;6.00;;;;;;;;;;5092427;28;20458;-72
2022/06/05 01:45:10;;;;;;;6.83;6.30;;;;;;;;;;5092202;28;20836;-74
2022/06/05 01:47:38;;;;;;;6.13;5.63;;;;;;;;;;5092626;28;20789;-73
2022/06/05 01:50:08;;;;;;;7.27;6.67;;;;;;;;;;5092525;28;20901;-74
2022/06/05 01:52:34;;;;;;;7.90;6.67;;;;;;;;;;5092356;28;20458;-74
2022/06/05 01:55:03;;;;;;;8.40;6.70;;;;;;;;;;5092055;28;20824;-73
2022/06/05 01:57:30;;;;;;;6.60;6.10;;;;;;;;;;5092406;28;20460;-74
2022/06/05 02:00:13;;;;;;;6.37;5.80;;;;;;;;;;5092405;28;20780;-73
2022/06/05 02:02:46;;;;;;;6.90;6.13;;;;;;;;;;5093338;28;20436;-74
2022/06/05 02:05:14;;;;;;;6.50;5.70;;;;;;;;;;5096200;28;20481;-73
2022/06/05 02:07:59;;;;;;;6.80;6.23;;;;;;;;;;5096415;28;20377;-73
2022/06/05 02:10:29;;;;;;;6.70;6.10;;;;;;;;;;5096281;28;20409;-74
2022/06/05 02:12:55;;;;;;;6.50;5.90;;;;;;;;;;5095852;28;20796;-74
2022/06/05 02:15:22;;;;;;;6.60;6.07;;;;;;;;;;5096149;28;20488;-74
2022/06/05 02:17:50;;;;;;;6.70;6.00;;;;;;;;;;5095320;28;20410;-73
2022/06/05 02:20:16;;;;;;;6.83;5.30;;;;;;;;;;5095048;28;20640;-74
2022/06/05 02:22:44;;;;;;;6.30;5.70;;;;;;;;;;5095982;28;20488;-74
2022/06/05 02:25:10;;;;;;;6.40;5.90;;;;;;;;;;5095938;28;20929;-75
2022/06/05 02:27:36;;;;;;;6.40;5.80;;;;;;;;;;5096314;28;20389;-75
2022/06/05 02:30:03;;;;;;;6.23;5.60;;;;;;;;;;5095933;28;20402;-74
2022/06/05 02:32:32;;;;;;;8.47;5.70;;;;;;;;;;5095767;28;20409;-74
2022/06/05 02:35:01;;;;;;;5.90;5.40;;;;;;;;;;5095347;28;20409;-73
2022/06/05 02:37:33;;;;;;;5.33;4.93;;;;;;;;;;5095801;28;20480;-73
2022/06/05 02:40:04;;;;;;;5.80;5.27;;;;;;;;;;5095761;28;20488;-74
2022/06/05 02:42:30;;;;;;;6.00;5.50;;;;;;;;;;5095404;28;20487;-75
2022/06/05 02:45:10;;;;;;;6.17;5.67;;;;;;;;;;5095069;28;20401;-75
2022/06/05 02:47:40;;;;;;;6.77;5.07;;;;;;;;;;5094212;28;20414;-73
2022/06/05 02:50:06;;;;;;;6.30;5.70;;;;;;;;;;5094089;28;20417;-74
2022/06/05 02:52:33;;;;;;;6.33;5.60;;;;;;;;;;5095353;28;20394;-74
2022/06/05 02:55:09;;;;;;;5.27;4.87;;;;;;;;;;5094742;28;21027;-75
2022/06/05 02:57:36;;;;;;;6.00;5.50;;;;;;;;;;5095203;28;20419;-74
2022/06/05 03:00:03;;;;;;;6.70;6.10;;;;;;;;;;5095369;28;20464;-73
2022/06/05 03:05:14;;;;;;;5.97;5.47;;;;;;;;;;5095183;28;20794;-74
2022/06/05 03:07:40;;;;;;;5.83;5.33;;;;;;;;;;5095110;28;20786;-74
2022/06/05 03:10:06;;;;;;;6.03;5.53;;;;;;;;;;5093991;28;20502;-73
2022/06/05 03:12:32;;;;;;;5.60;5.20;;;;;;;;;;5095317;28;20386;-73
2022/06/05 03:15:01;;;;;;;8.33;5.57;;;;;;;;;;5094586;28;20863;-74
2022/06/05 03:17:28;;;;;;;6.37;5.83;;;;;;;;;;5095131;28;20410;-74
2022/06/05 03:19:54;;;;;;;5.80;5.20;;;;;;;;;;5095014;28;20410;-74
2022/06/05 03:22:20;;;;;;;5.07;4.70;;;;;;;;;;5093681;28;20458;-73
2022/06/05 03:24:46;;;;;;;6.03;5.63;;;;;;;;;;5094480;28;20470;-73
2022/06/05 03:27:12;;;;;;;5.57;5.10;;;;;;;;;;5094661;28;20407;-75
2022/06/05 03:29:38;;;;;;;9.37;5.10;;;;;;;;;;5094675;28;20412;-74
2022/06/05 03:32:04;;;;;;;6.00;5.50;;;;;;;;;;5094669;28;20454;-74
2022/06/05 03:34:30;;;;;;;6.03;5.57;;;;;;;;;;5094456;28;20431;-74
2022/06/05 03:36:56;;;;;;;5.63;5.23;;;;;;;;;;5094664;28;20443;-75
2022/06/05 03:39:23;;;;;;;5.30;4.80;;;;;;;;;;5094479;28;20421;-75
2022/06/05 03:41:49;;;;;;;5.43;4.93;;;;;;;;;;5093158;28;20571;-74
2022/06/05 03:44:15;;;;;;;7.20;6.07;;;;;;;;;;5094086;28;20412;-74
2022/06/05 03:46:41;;;;;;;5.13;4.73;;;;;;;;;;5094471;28;20381;-74
2022/06/05 03:49:08;;;;;;;8.37;5.17;;;;;;;;;;5094182;28;21040;-74
2022/06/05 03:51:34;;;;;;;5.30;4.83;;;;;;;;;;5094178;28;20490;-74
2022/06/05 03:54:00;;;;;;;5.43;4.80;;;;;;;;;;5093792;28;20459;-74
2022/06/05 03:56:27;;;;;;;5.10;4.70;;;;;;;;;;5094159;28;20904;-75
2022/06/05 03:58:53;;;;;;;5.43;5.03;;;;;;;;;;5094175;28;20738;-75
2022/06/05 04:01:22;;;;;;;5.57;5.07;;;;;;;;;;5094064;28;20445;-75
2022/06/05 04:03:48;;;;;;;5.20;4.90;;;;;;;;;;5093904;28;20791;-75
2022/06/05 04:06:15;;;;;;;5.67;5.17;;;;;;;;;;5094184;28;20430;-74
2022/06/05 04:08:41;;;;;;;5.93;5.50;;;;;;;;;;5092739;28;20407;-75
2022/06/05 04:11:08;;;;;;;5.50;4.90;;;;;;;;;;5093952;28;20390;-74
2022/06/05 04:13:34;;;;;;;5.10;4.70;;;;;;;;;;5093560;28;20417;-75
2022/06/05 04:16:00;;;;;;;5.60;5.20;;;;;;;;;;5093849;28;20441;-74
2022/06/05 04:18:26;;;;;;;5.70;5.20;;;;;;;;;;5093790;28;20786;-75
2022/06/05 04:20:52;;;;;;;5.40;5.00;;;;;;;;;;5093679;28;20382;-75
2022/06/05 04:23:18;;;;;;;5.40;5.00;;;;;;;;;;5093302;28;20795;-73
2022/06/05 04:25:45;;;;;;;5.23;4.83;;;;;;;;;;5093152;28;20990;-74
2022/06/05 04:28:11;;;;;;;6.30;4.63;;;;;;;;;;5093951;28;20414;-74
2022/06/05 04:30:38;;;;;;;5.67;5.17;;;;;;;;;;5093622;28;20454;-74
2022/06/05 04:33:05;;;;;;;5.83;5.00;;;;;;;;;;5093232;28;20526;-74
2022/06/05 04:35:31;;;;;;;5.40;4.90;;;;;;;;;;5093281;28;20499;-74
2022/06/05 04:37:57;;;;;;;5.53;5.03;;;;;;;;;;5092306;28;20838;-74
2022/06/05 04:40:23;;;;;;;6.60;5.93;;;;;;;;;;5093617;28;20497;-75
2022/06/05 04:42:49;;;;;;;5.23;4.70;;;;;;;;;;5093306;28;21031;-74
2022/06/05 04:45:15;;;;;;;6.77;5.80;;;;;;;;;;5092926;28;20496;-74
2022/06/05 04:47:42;;;;;;;5.27;4.87;;;;;;;;;;5091766;28;20449;-74
2022/06/05 04:50:08;;;;;;;6.10;5.60;;;;;;;;;;5093295;28;20472;-75
2022/06/05 04:52:34;;;;;;;6.20;5.60;;;;;;;;;;5093367;28;20490;-74
2022/06/05 04:55:01;;;;;;;5.07;4.67;;;;;;;;;;5074490;28;21033;-75
2022/06/05 04:57:27;;;;;;;5.60;5.10;;;;;;;;;;5093081;28;20407;-76
2022/06/05 04:59:54;;;;;;;5.33;4.83;;;;;;;;;;5092838;28;20381;-75
2022/06/05 05:02:20;;;;;;;5.80;5.30;;;;;;;;;;5091741;28;21019;-75
2022/06/05 05:04:47;;;;;;;5.03;4.73;;;;;;;;;;5091532;28;20418;-74
2022/06/05 05:07:16;;;;;;;6.20;5.60;;;;;;;;;;5092970;28;20388;-74
2022/06/05 05:09:42;;;;;;;6.47;5.90;;;;;;;;;;5092821;28;20855;-75
2022/06/05 05:12:11;;;;;;;7.50;6.80;;;;;;;;;;5092756;28;20399;-74
2022/06/05 05:14:39;;;;;;;5.43;4.93;;;;;;;;;;5091099;28;20785;-75
2022/06/05 05:17:05;;;;;;;6.63;6.07;;;;;;;;;;5091686;28;20745;-74
2022/06/05 05:19:31;;;;;;;6.53;5.93;;;;;;;;;;5091618;28;20433;-75
2022/06/05 05:21:57;;;;;;;5.73;5.17;;;;;;;;;;5091380;28;20428;-75
2022/06/05 05:24:23;;;;;;;6.50;5.80;;;;;;;;;;5092525;28;20433;-75
2022/06/05 05:26:49;;;;;;;8.30;7.30;;;;;;;;;;5092825;28;20407;-74
2022/06/05 05:29:15;;;;;;;7.43;5.90;;;;;;;;;;5092781;28;20628;-73
2022/06/05 05:31:43;;;;;;;7.07;5.83;;;;;;;;;;5092628;28;20587;-75
2022/06/05 05:34:09;;;;;;;6.47;5.87;;;;;;;;;;5092241;28;20445;-74
2022/06/05 05:36:36;;;;;;;7.03;6.33;;;;;;;;;;5092459;28;20390;-74
2022/06/05 05:42:05;;;;;;;5.90;5.30;;;;;;;;;;5097011;28;20460;-75
2022/06/05 05:44:32;;;;;;;5.30;4.90;;;;;;;;;;5096280;28;20515;-75
2022/06/05 05:46:58;;;;;;;5.87;5.20;;;;;;;;;;5096911;28;20402;-73
2022/06/05 05:49:24;;;;;;;4.90;4.50;;;;;;;;;;5096654;28;20406;-73
2022/06/05 05:51:50;;;;;;;8.00;5.63;;;;;;;;;;5096493;28;20406;-74
2022/06/05 05:54:16;;;;;;;5.77;5.27;;;;;;;;;;5095991;28;20840;-74
2022/06/05 05:56:42;;;;;;;9.27;5.03;;;;;;;;;;5096424;28;20407;-74
2022/06/05 05:59:08;;;;;;;9.07;5.70;;;;;;;;;;5096638;28;20384;-73
2022/06/05 06:01:34;;;;;;;5.63;5.07;;;;;;;;;;5096405;28;20541;-74
2022/06/05 06:04:00;;;;;;;6.00;5.27;;;;;;;;;;5095912;28;20803;-73
2022/06/05 06:06:28;;;;;;;6.17;5.10;;;;;;;;;;5078306;28;20787;-74
2022/06/05 06:08:54;;;;;;;5.60;5.10;;;;;;;;;;5096352;28;20399;-73
2022/06/05 06:11:20;;;;;;;5.23;4.83;;;;;;;;;;5096225;28;20434;-74
2022/06/05 06:13:46;;;;;;;5.70;4.93;;;;;;;;;;5095893;28;20498;-73
2022/06/05 06:16:12;;;;;;;5.33;4.93;;;;;;;;;;5096307;28;20607;-74
2022/06/05 06:18:39;;;;;;;5.77;5.33;;;;;;;;;;5096265;28;20434;-74
2022/06/05 06:21:05;;;;;;;6.10;5.60;;;;;;;;;;5095006;28;20411;-74
2022/06/05 06:23:31;;;;;;;4.90;4.40;;;;;;;;;;5095976;28;20797;-73
2022/06/05 06:25:57;;;;;;;6.07;5.57;;;;;;;;;;5096058;28;20427;-74
2022/06/05 06:28:23;;;;;;;5.33;4.87;;;;;;;;;;5095985;28;20414;-74
2022/06/05 06:30:49;;;;;;;5.87;5.37;;;;;;;;;;5096022;28;20476;-74
2022/06/05 06:33:15;;;;;;;5.87;5.43;;;;;;;;;;5095861;28;20431;-74
2022/06/05 06:35:41;;;;;;;6.03;5.53;;;;;;;;;;5095863;28;20422;-75
2022/06/05 06:38:07;;;;;;;6.27;5.40;;;;;;;;;;5095921;28;20413;-74
2022/06/05 06:40:35;;;;;;;5.33;4.93;;;;;;;;;;5095726;28;20435;-73
2022/06/05 06:43:01;;;;;;;8.37;5.00;;;;;;;;;;5093887;28;20547;-74
2022/06/05 06:45:27;;;;;;;7.70;5.87;;;;;;;;;;5095365;28;20461;-75
2022/06/05 06:47:53;;;;;;;6.40;5.53;;;;;;;;;;5093875;28;20411;-75
2022/06/05 06:50:19;;;;;;;5.70;5.30;;;;;;;;;;5095658;28;20437;-75
2022/06/05 06:52:45;;;;;;;5.70;5.10;;;;;;;;;;5095386;28;20410;-74
2022/06/05 06:55:16;;;;;;;5.93;5.50;;;;;;;;;;5095243;28;20439;-74
2022/06/05 06:57:42;;;;;;;7.63;5.37;;;;;;;;;;5095547;28;20811;-74
2022/06/05 07:00:09;;;;;;;6.40;5.80;;;;;;;;;;5095401;28;20402;-74
2022/06/05 07:02:35;;;;;;;5.93;5.43;;;;;;;;;;5095155;28;20462;-75
2022/06/05 07:05:01;;;;;;;6.00;5.43;;;;;;;;;;5094807;28;20405;-75
2022/06/05 07:07:27;;;;;;;5.40;4.90;;;;;;;;;;5093916;28;20499;-73
2022/06/05 07:09:53;;;;;;;5.50;4.97;;;;;;;;;;5095279;28;20419;-74
2022/06/05 07:12:21;;;;;;;6.50;5.90;;;;;;;;;;5095296;28;20427;-74
2022/06/05 07:14:47;;;;;;;6.20;5.70;;;;;;;;;;5094492;28;20438;-74
2022/06/05 07:17:13;;;;;;;6.60;5.53;;;;;;;;;;5076870;28;20441;-73
2022/06/05 07:19:39;;;;;;;6.37;5.40;;;;;;;;;;5094843;28;20415;-75
2022/06/05 07:22:05;;;;;;;6.40;5.90;;;;;;;;;;5094990;28;20795;-74
2022/06/05 07:24:31;;;;;;;6.00;5.40;;;;;;;;;;5093436;28;20434;-75
2022/06/05 07:26:57;;;;;;;5.70;5.20;;;;;;;;;;5094930;28;20410;-75
2022/06/05 07:29:23;;;;;;;6.07;5.40;;;;;;;;;;5094935;28;20480;-74
2022/06/05 07:31:49;;;;;;;6.67;5.93;;;;;;;;;;5094493;28;20409;-74
2022/06/05 07:34:15;;;;;;;5.97;5.47;;;;;;;;;;5094366;28;20862;-74
2022/06/05 07:36:41;;;;;;;6.30;5.70;;;;;;;;;;5093380;28;20407;-73
2022/06/05 07:39:07;;;;;;;6.37;5.60;;;;;;;;;;5094501;28;20773;-75
2022/06/05 07:41:36;;;;;;;6.27;5.67;;;;;;;;;;5094551;28;20461;-74
2022/06/05 07:44:02;;;;;;;7.20;5.40;;;;;;;;;;5094120;28;20817;-73
2022/06/05 07:46:28;;;;;;;6.33;5.73;;;;;;;;;;5094557;28;20504;-74
2022/06/05 07:48:54;;;;;;;10.20;6.00;;;;;;;;;;5094456;28;20854;-75
2022/06/05 07:54:30;;;;;;;7.03;6.50;;;;;;;;;;5094299;28;20504;-75
2022/06/05 07:57:00;;;;;;;7.33;6.27;;;;;;;;;;5094220;28;20410;-76
2022/06/05 07:59:27;;;;;;;7.17;6.57;;;;;;;;;;5093784;28;20434;-75
2022/06/05 08:01:53;;;;;;;7.47;6.67;;;;;;;;;;5092743;28;20507;-74
2022/06/05 08:04:19;;;;;;;7.17;6.53;;;;;;;;;;5094001;28;20510;-76
2022/06/05 08:06:47;;;;;;;7.43;6.83;;;;;;;;;;5094086;28;20430;-76
2022/06/05 08:09:13;;;;;;;8.53;6.93;;;;;;;;;;5093976;28;20489;-75
2022/06/05 08:11:42;;;;;;;7.20;6.60;;;;;;;;;;5094543;28;20505;-75
2022/06/05 08:14:10;;;;;;;9.93;6.60;;;;;;;;;;5093684;28;20438;-75
2022/06/05 08:16:36;;;;;;;7.13;6.53;;;;;;;;;;5094020;28;20415;-75
2022/06/05 08:19:02;;;;;;;7.47;6.87;;;;;;;;;;5093704;28;20432;-74
2022/06/05 08:21:28;;;;;;;8.50;6.83;;;;;;;;;;5093449;28;20504;-74
2022/06/05 08:23:54;;;;;;;8.50;7.80;;;;;;;;;;5093442;28;20493;-75
2022/06/05 08:26:20;;;;;;;8.40;7.60;;;;;;;;;;5093727;28;20382;-74
2022/06/05 08:28:46;;;;;;;8.53;7.90;;;;;;;;;;5093793;28;20505;-76
2022/06/05 08:31:12;;;;;;;7.73;7.13;;;;;;;;;;5093364;28;20521;-76
2022/06/05 08:33:38;;;;;;;7.73;7.13;;;;;;;;;;5093188;28;20410;-75
2022/06/05 08:36:04;;;;;;;8.50;7.77;;;;;;;;;;5093848;28;20433;-76
2022/06/05 08:41:26;;;;;;;9.67;8.77;;;;;;;;;;5093827;28;22400;-75
2022/06/05 08:43:52;;;;;;;14.23;8.83;;;;;;;;;;5093262;28;20403;-75
2022/06/05 08:46:18;;;;;;;11.67;9.20;;;;;;;;;;5090331;28;20475;-77
2022/06/05 08:48:49;;;;;;;9.63;8.87;;;;;;;;;;5082028;28;20382;-76
2022/06/05 08:51:22;;;;;;;10.17;9.07;;;;;;;;;;5082975;28;20732;-77
2022/06/05 08:53:51;;;;;;;9.53;8.73;;;;;;;;;;5072732;28;20416;-75
2022/06/05 08:56:22;;;;;;;10.00;9.30;;;;;;;;;;5073075;28;20409;-75
2022/06/05 08:58:51;;;;;;;9.53;8.63;;;;;;;;;;5073205;28;20423;-74
2022/06/05 09:01:24;;;;;;;10.17;9.20;;;;;;;;;;5072945;28;20429;-75
2022/06/05 09:03:58;;;;;;;9.30;8.60;;;;;;;;;;5072626;28;20406;-78
2022/06/05 09:06:45;;;;;;;10.87;9.87;;;;;;;;;;5073011;28;20416;-74
2022/06/05 09:09:15;;;;;;;9.80;9.10;;;;;;;;;;5073342;28;20407;-79
2022/06/05 09:11:41;;;;;;;11.13;10.10;;;;;;;;;;5071733;28;20502;-81
2022/06/05 09:14:21;;;;;;;11.00;10.00;;;;;;;;;;5072626;28;20477;-81
2022/06/05 09:16:52;;;;;;;12.50;11.20;;;;;;;;;;5072963;28;20741;-79
2022/06/05 09:19:22;;;;;;;12.10;11.10;;;;;;;;;;5073061;28;20879;-80
2022/06/05 09:21:55;;;;;;;12.40;11.37;;;;;;;;;;5072543;28;20437;-82
2022/06/05 09:24:27;;;;;;;12.67;11.67;;;;;;;;;;5072382;28;20457;-82
2022/06/05 09:27:00;;;;;;;13.30;12.27;;;;;;;;;;5073171;28;20370;-81
2022/06/05 09:29:43;;;;;;;12.13;11.03;;;;;;;;;;5073040;28;20436;-83
2022/06/05 09:32:15;;;;;;;14.07;12.70;;;;;;;;;;5072681;28;20427;-80
2022/06/05 09:34:50;;;;;;;14.33;13.07;;;;;;;;;;5072446;28;20459;-82
2022/06/05 09:37:16;;;;;;;12.30;11.10;;;;;;;;;;5072935;28;20386;-80
2022/06/05 09:39:45;;;;;;;13.87;12.73;;;;;;;;;;5071485;28;20455;-80
2022/06/05 09:42:30;;;;;;;15.30;13.00;;;;;;;;;;5072824;28;20509;-80
2022/06/05 09:45:07;;;;;;;15.40;13.87;;;;;;;;;;5074820;28;20955;-80
2022/06/05 09:47:36;;;;;;;19.20;15.30;;;;;;;;;;5072853;28;20406;-80
2022/06/05 09:50:04;;;;;;;14.87;13.77;;;;;;;;;;5072583;28;20395;-79
2022/06/05 09:52:32;;;;;;;15.67;14.37;;;;;;;;;;5072936;28;20374;-78
2022/06/05 09:54:58;;;;;;;16.37;14.30;;;;;;;;;;5072487;28;20469;-77
2022/06/05 10:00:15;;;;;;;14.13;12.90;;;;;;;;;;5072565;28;20397;-81
2022/06/05 10:02:41;;;;;;;17.47;14.33;;;;;;;;;;5072374;28;20433;-80
2022/06/05 10:05:17;;;;;;;15.20;13.13;;;;;;;;;;5072173;28;20790;-80
2022/06/05 10:07:52;;;;;;;14.37;13.07;;;;;;;;;;5071598;28;20425;-78
2022/06/05 10:10:21;;;;;;;14.40;13.20;;;;;;;;;;5086725;28;20412;-78
2022/06/05 10:12:58;;;;;;;14.47;13.17;;;;;;;;;;5092637;28;20406;-80
2022/06/05 10:15:27;;;;;;;14.90;13.50;;;;;;;;;;5092541;28;20507;-76
2022/06/05 10:17:57;;;;;;;14.87;13.43;;;;;;;;;;5092304;28;20407;-78
2022/06/05 10:20:36;;;;;;;14.17;12.40;;;;;;;;;;5092355;28;20499;-79
2022/06/05 10:23:05;;;;;;;14.33;12.70;;;;;;;;;;5092179;28;20531;-79
2022/06/05 10:25:35;;;;;;;13.17;11.97;;;;;;;;;;5095044;28;20735;-77
2022/06/05 10:28:05;;;;;;;13.37;12.10;;;;;;;;;;5096250;28;20802;-79
2022/06/05 10:30:34;;;;;;;14.90;13.60;;;;;;;;;;5096038;28;20399;-77
2022/06/05 10:33:07;;;;;;;13.40;12.10;;;;;;;;;;5095907;28;20444;-78
2022/06/05 10:35:47;;;;;;;12.50;11.30;;;;;;;;;;5094639;28;20442;-78
2022/06/05 10:38:36;;;;;;;12.20;11.00;;;;;;;;;;5095879;28;20380;-80
2022/06/05 10:41:04;;;;;;;13.07;11.90;;;;;;;;;;5085481;28;20429;-78
2022/06/05 10:43:31;;;;;;;11.50;10.50;;;;;;;;;;5095511;28;20403;-78
2022/06/05 10:46:27;;;;;;;11.63;10.63;;;;;;;;;;5094501;28;20454;-78
2022/06/05 10:49:09;;;;;;;8.70;7.90;;;;;;;;;;5078887;28;20426;-77
2022/06/05 10:51:55;;;;;;;12.53;11.33;;;;;;;;;;5095651;28;20417;-78
2022/06/05 10:54:30;;;;;;;12.20;11.20;;;;;;;;;;5054256;28;20430;-78
2022/06/05 10:57:10;;;;;;;9.40;8.33;;;;;;;;;;5095504;28;20425;-77
2022/06/05 10:59:48;;;;;;;8.97;8.27;;;;;;;;;;5094152;28;20475;-79
2022/06/05 11:02:14;;;;;;;10.60;9.13;;;;;;;;;;5093914;28;20998;-77
2022/06/05 11:04:40;;;;;;;9.23;8.40;;;;;;;;;;5094806;28;20466;-79
2022/06/05 11:07:24;;;;;;;9.13;8.07;;;;;;;;;;5095385;28;20778;-77
2022/06/05 11:09:55;;;;;;;9.10;7.33;;;;;;;;;;5095377;28;20451;-77
2022/06/05 11:15:39;;;;;;;6.83;6.20;;;;;;;;;;5094963;28;20433;-77
2022/06/05 11:18:15;;;;;;;7.77;7.07;;;;;;;;;;5095389;28;20407;-79
2022/06/05 11:20:43;;;;;;;7.47;6.90;;;;;;;;;;5095085;28;20817;-77
2022/06/05 11:23:13;;;;;;;6.40;6.00;;;;;;;;;;5094634;28;20809;-78
2022/06/05 11:25:59;;;;;;;8.57;7.70;;;;;;;;;;5095070;28;20481;-77
2022/06/05 11:28:28;;;;;;;8.13;6.90;;;;;;;;;;5094683;28;20402;-79
2022/06/05 11:31:00;;;;;;;8.37;7.77;;;;;;;;;;5094646;28;20419;-78
2022/06/05 11:33:30;;;;;;;7.57;6.97;;;;;;;;;;5094631;28;20403;-77
2022/06/05 11:36:02;;;;;;;6.90;6.40;;;;;;;;;;5094574;28;20433;-78
2022/06/05 11:38:34;;;;;;;7.90;7.20;;;;;;;;;;5094843;28;20403;-77
2022/06/05 11:41:06;;;;;;;6.97;6.47;;;;;;;;;;5093549;28;20783;-77
2022/06/05 11:43:37;;;;;;;7.90;7.10;;;;;;;;;;5094351;28;20418;-77
2022/06/05 11:46:09;;;;;;;7.27;6.77;;;;;;;;;;5094491;28;20472;-77
2022/06/05 11:48:38;;;;;;;7.33;6.63;;;;;;;;;;5094373;28;20395;-77
2022/06/05 11:51:14;;;;;;;6.50;5.80;;;;;;;;;;5094229;28;20726;-78
2022/06/05 11:54:01;;;;;;;6.57;6.07;;;;;;;;;;5094182;28;20407;-77
2022/06/05 11:56:39;;;;;;;5.57;5.17;;;;;;;;;;5094252;28;20442;-79
2022/06/05 11:59:08;;;;;;;5.30;4.87;;;;;;;;;;5094217;28;20489;-77
2022/06/05 12:01:36;;;;;;;5.40;5.00;;;;;;;;;;5094188;28;20462;-75
2022/06/05 12:04:01;;;;;;;5.37;4.97;;;;;;;;;;5093966;28;20810;-80
2022/06/05 12:06:30;;;;;;;5.63;5.13;;;;;;;;;;5094132;28;20489;-78
2022/06/05 12:08:59;;;;;;;8.27;5.53;;;;;;;;;;5093912;28;20403;-77
2022/06/05 12:11:27;;;;;;;5.80;5.40;;;;;;;;;;5094395;28;20414;-77
2022/06/05 12:14:08;;;;;;;5.30;5.00;;;;;;;;;;5093508;28;20464;-78
2022/06/05 12:16:43;;;;;;;6.20;5.73;;;;;;;;;;5094194;28;20415;-77
2022/06/05 12:19:14;;;;;;;6.10;5.50;;;;;;;;;;5093995;28;20414;-79
2022/06/05 12:21:49;;;;;;;5.97;5.57;;;;;;;;;;5094089;28;20466;-78
2022/06/05 12:24:21;;;;;;;6.13;5.50;;;;;;;;;;5093620;28;20419;-77
2022/06/05 12:26:51;;;;;;;5.63;5.20;;;;;;;;;;5094188;28;20803;-77
2022/06/05 12:29:19;;;;;;;6.10;5.50;;;;;;;;;;5093998;28;20413;-78
2022/06/05 12:31:47;;;;;;;5.60;5.20;;;;;;;;;;5093774;28;20437;-77
2022/06/05 12:34:21;;;;;;;6.03;5.43;;;;;;;;;;5093380;28;20570;-78
2022/06/05 12:36:54;;;;;;;5.87;5.37;;;;;;;;;;5092497;28;20441;-77
2022/06/05 12:39:26;;;;;;;5.40;5.00;;;;;;;;;;5093730;28;20410;-77
2022/06/05 12:42:07;;;;;;;6.47;5.97;;;;;;;;;;5093610;28;20498;-79
2022/06/05 12:44:34;;;;;;;5.70;5.30;;;;;;;;;;5093307;28;20436;-78
2022/06/05 12:47:01;;;;;;;5.60;5.10;;;;;;;;;;5092831;28;20486;-77
2022/06/05 12:49:28;;;;;;;10.27;5.90;;;;;;;;;;5093468;28;20402;-78
2022/06/05 12:52:13;;;;;;;9.33;6.60;;;;;;;;;;5093554;28;20415;-78
2022/06/05 12:54:46;;;;;;;6.77;6.27;;;;;;;;;;5092998;28;20438;-77
2022/06/05 12:57:15;;;;;;;6.83;6.23;;;;;;;;;;5093088;28;20422;-77
2022/06/05 12:59:41;;;;;;;7.70;6.73;;;;;;;;;;5093350;28;20410;-78
2022/06/05 13:02:22;;;;;;;9.53;7.70;;;;;;;;;;5093082;28;20462;-80
2022/06/05 13:05:03;;;;;;;9.27;8.47;;;;;;;;;;5090976;28;20570;-80
2022/06/05 13:07:38;;;;;;;8.27;7.63;;;;;;;;;;5079727;28;20410;-77
2022/06/05 13:10:22;;;;;;;9.20;8.50;;;;;;;;;;5093304;28;20937;-78
2022/06/05 13:12:57;;;;;;;9.50;8.80;;;;;;;;;;5075623;28;20404;-79
2022/06/05 13:15:43;;;;;;;9.27;8.50;;;;;;;;;;5072874;28;20434;-78
2022/06/05 13:18:09;;;;;;;8.80;8.13;;;;;;;;;;5073070;28;20435;-77
2022/06/05 13:20:53;;;;;;;9.00;8.33;;;;;;;;;;5072835;28;20867;-78
2022/06/05 13:23:30;;;;;;;11.07;10.20;;;;;;;;;;5075793;28;20549;-78
2022/06/05 13:26:15;;;;;;;11.33;10.43;;;;;;;;;;5094059;28;20430;-79
2022/06/05 13:28:47;;;;;;;10.37;9.27;;;;;;;;;;5092947;28;20410;-79
2022/06/05 13:31:26;;;;;;;10.87;9.43;;;;;;;;;;5091233;28;20433;-79
2022/06/05 13:33:58;;;;;;;11.00;10.00;;;;;;;;;;5092566;28;20373;-78
2022/06/05 13:36:30;;;;;;;12.73;9.57;;;;;;;;;;5093041;28;20438;-78
2022/06/05 13:38:59;;;;;;;11.80;10.90;;;;;;;;;;5092829;28;20395;-78
2022/06/05 13:41:46;;;;;;;10.83;9.83;;;;;;;;;;5093076;28;20823;-82
2022/06/05 13:44:20;;;;;;;10.90;10.10;;;;;;;;;;5092342;28;20434;-80
2022/06/05 13:47:09;;;;;;;13.07;11.90;;;;;;;;;;5092529;28;20555;-79
2022/06/05 13:49:40;;;;;;;14.23;13.03;;;;;;;;;;5078254;28;20426;-78
2022/06/05 13:52:20;;;;;;;14.23;13.00;;;;;;;;;;5092814;28;20773;-77
2022/06/05 13:54:52;;;;;;;14.20;13.10;;;;;;;;;;5092251;28;20796;-78
2022/06/05 13:57:37;;;;;;;15.63;14.00;;;;;;;;;;5092281;28;20426;-80
2022/06/05 14:00:06;;;;;;;15.97;14.53;;;;;;;;;;5096118;28;20385;-78
2022/06/05 14:02:37;;;;;;;17.20;15.67;;;;;;;;;;5095211;28;20473;-79
2022/06/05 14:05:16;;;;;;;16.70;15.00;;;;;;;;;;5096196;28;20405;-78
2022/06/05 14:07:51;;;;;;;18.23;16.53;;;;;;;;;;5096371;28;20495;-78
2022/06/05 14:10:17;;;;;;;14.97;13.80;;;;;;;;;;5095167;28;20524;-78
2022/06/05 14:12:45;;;;;;;15.80;14.50;;;;;;;;;;5095329;28;20448;-80
2022/06/05 14:15:16;;;;;;;17.43;15.93;;;;;;;;;;5096132;28;20407;-82
2022/06/05 14:17:45;;;;;;;16.33;14.73;;;;;;;;;;5095057;28;20783;-79
2022/06/05 14:20:16;;;;;;;22.30;14.50;;;;;;;;;;5096492;28;20385;-82
2022/06/05 14:22:44;;;;;;;17.93;7.23;;;;;;;;;;5096382;28;20928;-79
2022/06/05 14:25:29;;;;;;;8.07;3.53;;;;;;;;;;5096548;28;20491;-86
2022/06/05 14:28:00;;;;;;;4.47;2.47;;;;;;;;;;5096360;28;20416;-80
2022/06/05 14:30:28;;;;;;;2.70;1.80;;;;;;;;;;5096365;28;20402;-80
2022/06/05 14:32:55;;;;;;;4.10;2.30;;;;;;;;;;5096257;28;20406;-78
2022/06/05 14:35:21;;;;;;;2.93;1.70;;;;;;;;;;5095065;28;20932;-81
2022/06/05 14:38:06;;;;;;;3.60;2.03;;;;;;;;;;5096150;28;20426;-81
2022/06/05 14:40:55;;;;;;;1.70;1.60;;;;;;;;;;5096185;28;20726;-79
2022/06/05 14:43:29;;;;;;;2.63;1.40;;;;;;;;;;5081303;28;20505;-78
2022/06/05 14:46:03;;;;;;;2.40;1.40;;;;;;;;;;5094398;28;20421;-80
2022/06/05 14:48:32;;;;;;;3.30;1.50;;;;;;;;;;5095890;28;20406;-77
2022/06/05 14:51:07;;;;;;;3.50;1.33;;;;;;;;;;5096054;28;20388;-80
2022/06/05 14:53:46;;;;;;;1.73;0.97;;;;;;;;;;5095548;28;20771;-77
2022/06/05 14:59:16;;;;;;;2.50;1.47;;;;;;;;;;5072517;28;20411;-78
2022/06/05 15:01:48;;;;;;;1.33;1.23;;;;;;;;;;5095605;28;20453;-77
2022/06/05 15:04:17;;;;;;;1.00;0.90;;;;;;;;;;5095085;28;20401;-77
2022/06/05 15:06:48;;;;;;;1.03;0.90;;;;;;;;;;5095534;28;20406;-77
2022/06/05 15:09:19;;;;;;;1.00;0.70;;;;;;;;;;5094796;28;20464;-77
2022/06/05 15:11:51;;;;;;;1.30;0.90;;;;;;;;;;5095145;28;20385;-79
2022/06/05 15:14:20;;;;;;;1.40;1.10;;;;;;;;;;5094892;28;20426;-76
2022/06/05 15:16:50;;;;;;;2.73;2.00;;;;;;;;;;5090578;28;20433;-77